sensor_id;sensor_type;location;lat;lon;timestamp;pressure;altitude;pressure_sealevel;temperature;humidity
4972;BME280;2501;51.214;6.768;2023-12-20T00:01:11;101239.72;;;6.85;100.00
4972;BME280;2501;51.214;6.768;2023-12-20T00:03:40;101248.38;;;6.84;100.00
4972;BME280;2501;51.214;6.768;2023-12-20T00:06:08;101248.47;;;6.87;100.00
4972;BME280;2501;51.214;6.768;2023-12-20T00:08:37;101250.59;;;6.70;100.00
4972;BME280;2501;51.214;6.768;2023-12-20T00:11:08;101250.97;;;6.84;100.00
4972;BME280;2501;51.214;6.768;2023-12-20T00:13:36;101248.75;;;6.68;100.00
4972;BME280;2501;51.214;6.768;2023-12-20T00:16:05;101254.88;;;6.68;100.00
4972;BME280;2501;51.214;6.768;2023-12-20T00:18:33;101247.72;;;6.62;100.00
4972;BME280;2501;51.214;6.768;2023-12-20T00:21:02;101245.81;;;6.85;100.00
4972;BME280;2501;51.214;6.768;2023-12-20T00:23:31;101242.97;;;6.78;100.00
4972;BME280;2501;51.214;6.768;2023-12-20T00:25:59;101252.66;;;6.82;100.00
4972;BME280;2501;51.214;6.768;2023-12-20T00:28:30;101266.63;;;6.84;100.00
4972;BME280;2501;51.214;6.768;2023-12-20T00:30:59;101270.88;;;6.52;100.00
4972;BME280;2501;51.214;6.768;2023-12-20T00:33:27;101268.69;;;6.66;100.00
4972;BME280;2501;51.214;6.768;2023-12-20T00:35:56;101272.13;;;6.64;100.00
4972;BME280;2501;51.214;6.768;2023-12-20T00:38:24;101270.00;;;6.81;100.00
4972;BME280;2501;51.214;6.768;2023-12-20T00:40:52;101270.34;;;6.92;100.00
4972;BME280;2501;51.214;6.768;2023-12-20T00:43:21;101268.00;;;6.71;100.00
4972;BME280;2501;51.214;6.768;2023-12-20T00:45:52;101261.34;;;6.82;100.00
4972;BME280;2501;51.214;6.768;2023-12-20T00:48:20;101255.44;;;6.88;100.00
4972;BME280;2501;51.214;6.768;2023-12-20T00:50:49;101271.13;;;6.89;100.00
4972;BME280;2501;51.214;6.768;2023-12-20T00:53:17;101279.06;;;6.92;100.00
4972;BME280;2501;51.214;6.768;2023-12-20T00:55:46;101286.91;;;6.94;100.00
4972;BME280;2501;51.214;6.768;2023-12-20T00:58:15;101281.81;;;6.98;100.00
4972;BME280;2501;51.214;6.768;2023-12-20T01:00:44;101272.28;;;6.99;100.00
4972;BME280;2501;51.214;6.768;2023-12-20T01:03:15;101268.88;;;7.02;100.00
4972;BME280;2501;51.214;6.768;2023-12-20T01:05:43;101268.78;;;6.98;100.00
4972;BME280;2501;51.214;6.768;2023-12-20T01:08:11;101272.28;;;6.99;100.00
4972;BME280;2501;51.214;6.768;2023-12-20T01:10:41;101273.09;;;6.98;100.00
4972;BME280;2501;51.214;6.768;2023-12-20T01:13:09;101274.88;;;6.99;100.00
4972;BME280;2501;51.214;6.768;2023-12-20T01:15:37;101272.22;;;6.97;100.00
4972;BME280;2501;51.214;6.768;2023-12-20T01:18:06;101283.53;;;6.98;100.00
4972;BME280;2501;51.214;6.768;2023-12-20T01:20:37;101275.56;;;6.93;100.00
4972;BME280;2501;51.214;6.768;2023-12-20T01:23:05;101282.31;;;6.85;100.00
4972;BME280;2501;51.214;6.768;2023-12-20T01:25:38;101289.44;;;6.91;100.00
4972;BME280;2501;51.214;6.768;2023-12-20T01:28:07;101291.84;;;6.85;100.00
4972;BME280;2501;51.214;6.768;2023-12-20T01:30:35;101278.88;;;6.86;100.00
4972;BME280;2501;51.214;6.768;2023-12-20T01:33:04;101281.47;;;6.86;100.00
4972;BME280;2501;51.214;6.768;2023-12-20T01:35:32;101291.91;;;6.86;100.00
4972;BME280;2501;51.214;6.768;2023-12-20T01:38:03;101296.28;;;6.87;100.00
4972;BME280;2501;51.214;6.768;2023-12-20T01:40:32;101291.84;;;6.85;100.00
4972;BME280;2501;51.214;6.768;2023-12-20T01:43:01;101297.41;;;6.67;100.00
4972;BME280;2501;51.214;6.768;2023-12-20T01:45:29;101305.47;;;6.76;100.00
4972;BME280;2501;51.214;6.768;2023-12-20T01:47:58;101309.78;;;6.74;100.00
4972;BME280;2501;51.214;6.768;2023-12-20T01:50:28;101303.66;;;6.72;100.00
4972;BME280;2501;51.214;6.768;2023-12-20T01:52:58;101311.97;;;6.60;100.00
4972;BME280;2501;51.214;6.768;2023-12-20T01:55:33;101311.78;;;6.54;100.00
4972;BME280;2501;51.214;6.768;2023-12-20T01:58:03;101322.84;;;6.47;100.00
4972;BME280;2501;51.214;6.768;2023-12-20T02:00:33;101306.38;;;6.48;100.00
4972;BME280;2501;51.214;6.768;2023-12-20T02:03:03;101313.72;;;6.33;100.00
4972;BME280;2501;51.214;6.768;2023-12-20T02:05:33;101308.72;;;6.41;100.00
4972;BME280;2501;51.214;6.768;2023-12-20T02:08:03;101306.78;;;6.34;100.00
4972;BME280;2501;51.214;6.768;2023-12-20T02:10:34;101309.06;;;6.23;100.00
4972;BME280;2501;51.214;6.768;2023-12-20T02:13:03;101308.06;;;6.19;100.00
4972;BME280;2501;51.214;6.768;2023-12-20T02:15:32;101322.81;;;6.19;100.00
4972;BME280;2501;51.214;6.768;2023-12-20T02:18:02;101313.19;;;6.16;100.00
4972;BME280;2501;51.214;6.768;2023-12-20T02:20:31;101313.13;;;6.15;100.00
4972;BME280;2501;51.214;6.768;2023-12-20T02:22:59;101315.72;;;6.15;100.00
4972;BME280;2501;51.214;6.768;2023-12-20T02:25:27;101319.75;;;6.05;100.00
4972;BME280;2501;51.214;6.768;2023-12-20T02:27:56;101312.22;;;6.14;100.00
4972;BME280;2501;51.214;6.768;2023-12-20T02:30:24;101321.50;;;6.06;100.00
4972;BME280;2501;51.214;6.768;2023-12-20T02:32:53;101314.72;;;6.11;100.00
4972;BME280;2501;51.214;6.768;2023-12-20T02:35:22;101323.66;;;6.18;100.00
4972;BME280;2501;51.214;6.768;2023-12-20T02:37:51;101330.97;;;6.29;100.00
4972;BME280;2501;51.214;6.768;2023-12-20T02:40:22;101329.28;;;6.32;100.00
4972;BME280;2501;51.214;6.768;2023-12-20T02:42:50;101330.03;;;6.27;100.00
4972;BME280;2501;51.214;6.768;2023-12-20T02:45:19;101336.13;;;6.28;100.00
4972;BME280;2501;51.214;6.768;2023-12-20T02:47:47;101330.84;;;6.26;100.00
4972;BME280;2501;51.214;6.768;2023-12-20T02:50:15;101331.09;;;6.07;100.00
4972;BME280;2501;51.214;6.768;2023-12-20T02:52:44;101335.69;;;6.14;100.00
4972;BME280;2501;51.214;6.768;2023-12-20T02:55:13;101324.97;;;6.05;100.00
4972;BME280;2501;51.214;6.768;2023-12-20T02:57:44;101321.22;;;6.24;100.00
4972;BME280;2501;51.214;6.768;2023-12-20T03:00:13;101312.28;;;6.16;100.00
4972;BME280;2501;51.214;6.768;2023-12-20T03:02:41;101320.34;;;6.23;100.00
4972;BME280;2501;51.214;6.768;2023-12-20T03:05:10;101329.19;;;6.28;100.00
4972;BME280;2501;51.214;6.768;2023-12-20T03:07:38;101330.22;;;6.34;100.00
4972;BME280;2501;51.214;6.768;2023-12-20T03:10:07;101325.25;;;6.14;100.00
4972;BME280;2501;51.214;6.768;2023-12-20T03:12:36;101329.00;;;6.22;100.00
4972;BME280;2501;51.214;6.768;2023-12-20T03:15:10;101336.28;;;6.06;100.00
4972;BME280;2501;51.214;6.768;2023-12-20T03:17:38;101335.97;;;6.23;100.00
4972;BME280;2501;51.214;6.768;2023-12-20T03:20:08;101326.09;;;6.13;100.00
4972;BME280;2501;51.214;6.768;2023-12-20T03:22:36;101321.97;;;6.20;100.00
4972;BME280;2501;51.214;6.768;2023-12-20T03:25:05;101320.44;;;6.00;100.00
4972;BME280;2501;51.214;6.768;2023-12-20T03:27:33;101319.88;;;5.84;100.00
4972;BME280;2501;51.214;6.768;2023-12-20T03:30:02;101324.47;;;5.91;100.00
4972;BME280;2501;51.214;6.768;2023-12-20T03:32:33;101329.06;;;5.99;100.00
4972;BME280;2501;51.214;6.768;2023-12-20T03:35:01;101327.19;;;5.94;100.00
4972;BME280;2501;51.214;6.768;2023-12-20T03:37:30;101328.19;;;5.98;100.00
4972;BME280;2501;51.214;6.768;2023-12-20T03:39:58;101323.75;;;5.96;100.00
4972;BME280;2501;51.214;6.768;2023-12-20T03:42:26;101321.44;;;6.03;100.00
4972;BME280;2501;51.214;6.768;2023-12-20T03:44:55;101319.34;;;5.93;100.00
4972;BME280;2501;51.214;6.768;2023-12-20T03:47:23;101312.84;;;5.82;100.00
4972;BME280;2501;51.214;6.768;2023-12-20T03:49:54;101312.84;;;5.82;100.00
4972;BME280;2501;51.214;6.768;2023-12-20T03:52:23;101307.09;;;5.90;100.00
4972;BME280;2501;51.214;6.768;2023-12-20T03:54:51;101307.75;;;6.10;100.00
4972;BME280;2501;51.214;6.768;2023-12-20T03:57:19;101304.81;;;6.00;100.00
4972;BME280;2501;51.214;6.768;2023-12-20T03:59:48;101317.72;;;5.73;100.00
4972;BME280;2501;51.214;6.768;2023-12-20T04:02:17;101314.19;;;5.94;100.00
4972;BME280;2501;51.214;6.768;2023-12-20T04:04:46;101313.03;;;5.86;100.00
4972;BME280;2501;51.214;6.768;2023-12-20T04:07:17;101310.47;;;5.88;100.00
4972;BME280;2501;51.214;6.768;2023-12-20T04:09:45;101321.03;;;5.67;100.00
4972;BME280;2501;51.214;6.768;2023-12-20T04:12:14;101311.28;;;5.62;100.00
4972;BME280;2501;51.214;6.768;2023-12-20T04:14:42;101316.72;;;5.44;100.00
4972;BME280;2501;51.214;6.768;2023-12-20T04:17:10;101309.56;;;5.62;100.00
4972;BME280;2501;51.214;6.768;2023-12-20T04:19:41;101315.84;;;5.43;100.00
4972;BME280;2501;51.214;6.768;2023-12-20T04:22:09;101305.94;;;5.33;100.00
4972;BME280;2501;51.214;6.768;2023-12-20T04:24:40;101314.28;;;5.48;100.00
4972;BME280;2501;51.214;6.768;2023-12-20T04:27:10;101319.78;;;5.32;100.00
4972;BME280;2501;51.214;6.768;2023-12-20T04:29:39;101329.50;;;5.62;100.00
4972;BME280;2501;51.214;6.768;2023-12-20T04:32:07;101325.75;;;5.53;100.00
4972;BME280;2501;51.214;6.768;2023-12-20T04:34:36;101332.16;;;5.39;100.00
4972;BME280;2501;51.214;6.768;2023-12-20T04:37:04;101331.72;;;5.51;100.00
4972;BME280;2501;51.214;6.768;2023-12-20T04:39:33;101334.22;;;5.24;100.00
4972;BME280;2501;51.214;6.768;2023-12-20T04:42:04;101333.22;;;5.44;100.00
4972;BME280;2501;51.214;6.768;2023-12-20T04:44:33;101320.25;;;5.70;100.00
4972;BME280;2501;51.214;6.768;2023-12-20T04:47:01;101327.31;;;5.74;100.00
4972;BME280;2501;51.214;6.768;2023-12-20T04:49:30;101317.84;;;5.76;100.00
4972;BME280;2501;51.214;6.768;2023-12-20T04:51:58;101333.09;;;5.65;100.00
4972;BME280;2501;51.214;6.768;2023-12-20T04:54:26;101324.72;;;5.74;100.00
4972;BME280;2501;51.214;6.768;2023-12-20T04:56:55;101322.53;;;5.86;100.00
4972;BME280;2501;51.214;6.768;2023-12-20T04:59:26;101328.00;;;5.68;100.00
4972;BME280;2501;51.214;6.768;2023-12-20T05:01:54;101333.97;;;5.66;100.00
4972;BME280;2501;51.214;6.768;2023-12-20T05:04:23;101328.25;;;5.76;100.00
4972;BME280;2501;51.214;6.768;2023-12-20T05:06:51;101324.56;;;5.69;100.00
4972;BME280;2501;51.214;6.768;2023-12-20T05:09:20;101326.47;;;5.49;100.00
4972;BME280;2501;51.214;6.768;2023-12-20T05:11:48;101325.53;;;5.73;100.00
4972;BME280;2501;51.214;6.768;2023-12-20T05:14:16;101327.75;;;5.86;100.00
4972;BME280;2501;51.214;6.768;2023-12-20T05:16:47;101324.22;;;5.84;100.00
4972;BME280;2501;51.214;6.768;2023-12-20T05:19:16;101337.63;;;5.71;100.00
4972;BME280;2501;51.214;6.768;2023-12-20T05:21:44;101341.84;;;5.67;100.00
4972;BME280;2501;51.214;6.768;2023-12-20T05:24:13;101328.09;;;5.95;100.00
4972;BME280;2501;51.214;6.768;2023-12-20T05:26:41;101319.13;;;5.87;100.00
4972;BME280;2501;51.214;6.768;2023-12-20T05:29:09;101328.97;;;5.72;100.00
4972;BME280;2501;51.214;6.768;2023-12-20T05:31:38;101336.56;;;5.89;100.00
4972;BME280;2501;51.214;6.768;2023-12-20T05:34:09;101333.00;;;5.87;100.00
4972;BME280;2501;51.214;6.768;2023-12-20T05:36:37;101329.31;;;5.81;100.00
4972;BME280;2501;51.214;6.768;2023-12-20T05:39:06;101327.91;;;5.90;100.00
4972;BME280;2501;51.214;6.768;2023-12-20T05:41:35;101322.31;;;5.80;100.00
4972;BME280;2501;51.214;6.768;2023-12-20T05:44:03;101320.19;;;5.68;100.00
4972;BME280;2501;51.214;6.768;2023-12-20T05:46:32;101312.53;;;5.73;100.00
4972;BME280;2501;51.214;6.768;2023-12-20T05:49:00;101314.56;;;5.81;100.00
4972;BME280;2501;51.214;6.768;2023-12-20T05:51:31;101313.25;;;5.92;100.00
4972;BME280;2501;51.214;6.768;2023-12-20T05:54:00;101315.34;;;5.79;100.00
4972;BME280;2501;51.214;6.768;2023-12-20T05:56:29;101301.63;;;5.83;100.00
4972;BME280;2501;51.214;6.768;2023-12-20T05:58:58;101300.28;;;5.94;100.00
4972;BME280;2501;51.214;6.768;2023-12-20T06:01:26;101303.16;;;6.02;100.00
4972;BME280;2501;51.214;6.768;2023-12-20T06:03:55;101312.38;;;5.68;100.00
4972;BME280;2501;51.214;6.768;2023-12-20T06:06:23;101309.75;;;5.92;100.00
4972;BME280;2501;51.214;6.768;2023-12-20T06:08:54;101311.94;;;6.05;100.00
4972;BME280;2501;51.214;6.768;2023-12-20T06:11:23;101320.72;;;6.09;100.00
4972;BME280;2501;51.214;6.768;2023-12-20T06:13:51;101324.22;;;6.09;100.00
4972;BME280;2501;51.214;6.768;2023-12-20T06:16:20;101330.91;;;6.01;100.00
4972;BME280;2501;51.214;6.768;2023-12-20T06:18:48;101331.91;;;6.05;100.00
4972;BME280;2501;51.214;6.768;2023-12-20T06:21:17;101336.94;;;6.00;100.00
4972;BME280;2501;51.214;6.768;2023-12-20T06:23:46;101335.56;;;6.11;100.00
4972;BME280;2501;51.214;6.768;2023-12-20T06:26:17;101332.63;;;6.27;100.00
4972;BME280;2501;51.214;6.768;2023-12-20T06:28:45;101323.09;;;6.28;100.00
4972;BME280;2501;51.214;6.768;2023-12-20T06:31:14;101323.59;;;6.16;100.00
4972;BME280;2501;51.214;6.768;2023-12-20T06:33:43;101325.66;;;6.26;100.00
4972;BME280;2501;51.214;6.768;2023-12-20T06:36:11;101328.81;;;6.16;100.00
4972;BME280;2501;51.214;6.768;2023-12-20T06:38:40;101328.91;;;6.19;100.00
4972;BME280;2501;51.214;6.768;2023-12-20T06:41:13;101329.47;;;6.11;100.00
4972;BME280;2501;51.214;6.768;2023-12-20T06:43:44;101327.53;;;6.31;100.00
4972;BME280;2501;51.214;6.768;2023-12-20T06:46:13;101325.53;;;6.23;100.00
4972;BME280;2501;51.214;6.768;2023-12-20T06:48:42;101325.25;;;6.14;100.00
4972;BME280;2501;51.214;6.768;2023-12-20T06:51:12;101332.63;;;6.27;100.00
4972;BME280;2501;51.214;6.768;2023-12-20T06:53:41;101329.00;;;6.22;100.00
4972;BME280;2501;51.214;6.768;2023-12-20T06:56:10;101329.56;;;6.41;100.00
4972;BME280;2501;51.214;6.768;2023-12-20T06:58:39;101324.56;;;6.47;100.00
4972;BME280;2501;51.214;6.768;2023-12-20T07:01:14;101326.94;;;6.39;100.00
4972;BME280;2501;51.214;6.768;2023-12-20T07:03:42;101320.16;;;6.17;100.00
4972;BME280;2501;51.214;6.768;2023-12-20T07:06:11;101319.13;;;6.39;100.00
4972;BME280;2501;51.214;6.768;2023-12-20T07:08:42;101312.94;;;6.36;100.00
4972;BME280;2501;51.214;6.768;2023-12-20T07:11:10;101316.53;;;6.41;100.00
4972;BME280;2501;51.214;6.768;2023-12-20T07:13:39;101327.53;;;6.31;100.00
4972;BME280;2501;51.214;6.768;2023-12-20T07:16:07;101327.91;;;6.43;100.00
4972;BME280;2501;51.214;6.768;2023-12-20T07:18:38;101320.75;;;6.36;100.00
4972;BME280;2501;51.214;6.768;2023-12-20T07:21:07;101317.47;;;6.43;100.00
4972;BME280;2501;51.214;6.768;2023-12-20T07:23:36;101316.22;;;6.30;100.00
4972;BME280;2501;51.214;6.768;2023-12-20T07:26:04;101315.69;;;6.40;100.00
4972;BME280;2501;51.214;6.768;2023-12-20T07:28:33;101321.81;;;6.42;100.00
4972;BME280;2501;51.214;6.768;2023-12-20T07:31:01;101320.63;;;6.59;100.00
4972;BME280;2501;51.214;6.768;2023-12-20T07:33:30;101317.09;;;6.57;100.00
4972;BME280;2501;51.214;6.768;2023-12-20T07:36:02;101319.47;;;6.50;100.00
4972;BME280;2501;51.214;6.768;2023-12-20T07:38:30;101322.16;;;6.53;100.00
4972;BME280;2501;51.214;6.768;2023-12-20T07:40:59;101322.59;;;6.67;100.00
4972;BME280;2501;51.214;6.768;2023-12-20T07:43:27;101320.25;;;6.47;100.00
4972;BME280;2501;51.214;6.768;2023-12-20T07:45:56;101321.44;;;6.57;100.00
4972;BME280;2501;51.214;6.768;2023-12-20T07:48:24;101324.47;;;6.44;100.00
4972;BME280;2501;51.214;6.768;2023-12-20T07:50:53;101317.94;;;6.29;100.00
4972;BME280;2501;51.214;6.768;2023-12-20T07:53:24;101319.41;;;6.77;100.00
4972;BME280;2501;51.214;6.768;2023-12-20T07:55:52;101324.44;;;6.71;100.00
4972;BME280;2501;51.214;6.768;2023-12-20T07:58:21;101322.16;;;6.53;100.00
4972;BME280;2501;51.214;6.768;2023-12-20T08:00:50;101321.38;;;6.55;100.00
4972;BME280;2501;51.214;6.768;2023-12-20T08:03:18;101314.56;;;6.60;100.00
4972;BME280;2501;51.214;6.768;2023-12-20T08:05:46;101316.47;;;6.66;100.00
4972;BME280;2501;51.214;6.768;2023-12-20T08:08:15;101320.81;;;6.66;100.00
4972;BME280;2501;51.214;6.768;2023-12-20T08:10:46;101318.22;;;6.66;100.00
4972;BME280;2501;51.214;6.768;2023-12-20T08:13:15;101327.78;;;6.38;100.00
4972;BME280;2501;51.214;6.768;2023-12-20T08:15:44;101329.16;;;6.54;100.00
4972;BME280;2501;51.214;6.768;2023-12-20T08:18:12;101326.19;;;6.70;100.00
4972;BME280;2501;51.214;6.768;2023-12-20T08:20:41;101328.75;;;6.42;100.00
4972;BME280;2501;51.214;6.768;2023-12-20T08:23:09;101332.13;;;6.66;100.00
4972;BME280;2501;51.214;6.768;2023-12-20T08:25:38;101329.25;;;6.58;100.00
4972;BME280;2501;51.214;6.768;2023-12-20T08:28:09;101324.38;;;6.41;100.00
4972;BME280;2501;51.214;6.768;2023-12-20T08:30:37;101319.91;;;6.37;100.00
4972;BME280;2501;51.214;6.768;2023-12-20T08:33:06;101316.94;;;6.53;100.00
4972;BME280;2501;51.214;6.768;2023-12-20T08:35:38;101325.75;;;6.29;100.00
4972;BME280;2501;51.214;6.768;2023-12-20T08:38:07;101330.66;;;6.47;100.00
4972;BME280;2501;51.214;6.768;2023-12-20T08:40:35;101331.56;;;6.48;100.00
4972;BME280;2501;51.214;6.768;2023-12-20T08:43:04;101321.81;;;6.42;100.00
4972;BME280;2501;51.214;6.768;2023-12-20T08:45:35;101341.66;;;6.37;100.00
4972;BME280;2501;51.214;6.768;2023-12-20T08:48:04;101333.94;;;6.40;100.00
4972;BME280;2501;51.214;6.768;2023-12-20T08:50:33;101334.16;;;6.76;100.00
4972;BME280;2501;51.214;6.768;2023-12-20T08:53:02;101340.00;;;6.41;100.00
4972;BME280;2501;51.214;6.768;2023-12-20T08:55:31;101340.03;;;6.42;100.00
4972;BME280;2501;51.214;6.768;2023-12-20T08:57:59;101337.06;;;6.30;100.00
4972;BME280;2501;51.214;6.768;2023-12-20T09:00:28;101344.94;;;6.32;100.00
4972;BME280;2501;51.214;6.768;2023-12-20T09:02:59;101337.38;;;6.39;100.00
4972;BME280;2501;51.214;6.768;2023-12-20T09:05:28;101328.84;;;6.45;100.00
4972;BME280;2501;51.214;6.768;2023-12-20T09:07:56;101330.97;;;6.56;100.00
4972;BME280;2501;51.214;6.768;2023-12-20T09:10:25;101328.56;;;6.36;100.00
4972;BME280;2501;51.214;6.768;2023-12-20T09:12:54;101324.66;;;6.50;100.00
4972;BME280;2501;51.214;6.768;2023-12-20T09:15:23;101334.34;;;6.54;100.00
4972;BME280;2501;51.214;6.768;2023-12-20T09:17:51;101322.78;;;6.46;100.00
4972;BME280;2501;51.214;6.768;2023-12-20T09:20:22;101311.31;;;6.68;100.00
4972;BME280;2501;51.214;6.768;2023-12-20T09:22:53;101309.41;;;6.62;100.00
4972;BME280;2501;51.214;6.768;2023-12-20T09:25:21;101314.19;;;6.48;100.00
4972;BME280;2501;51.214;6.768;2023-12-20T09:27:51;101317.00;;;6.54;100.00
4972;BME280;2501;51.214;6.768;2023-12-20T09:30:20;101314.34;;;6.53;100.00
4972;BME280;2501;51.214;6.768;2023-12-20T09:32:49;101317.22;;;6.62;100.00
4972;BME280;2501;51.214;6.768;2023-12-20T09:35:17;101312.94;;;6.36;100.00
4972;BME280;2501;51.214;6.768;2023-12-20T09:37:48;101323.63;;;6.72;100.00
4972;BME280;2501;51.214;6.768;2023-12-20T09:40:22;101314.06;;;6.72;100.00
4972;BME280;2501;51.214;6.768;2023-12-20T09:43:14;101316.47;;;6.66;100.00
4972;BME280;2501;51.214;6.768;2023-12-20T09:46:00;101311.31;;;6.68;100.00
4972;BME280;2501;51.214;6.768;2023-12-20T09:48:30;101326.44;;;6.79;100.00
4972;BME280;2501;51.214;6.768;2023-12-20T09:50:59;101313.41;;;6.79;100.00
4972;BME280;2501;51.214;6.768;2023-12-20T09:53:31;101322.31;;;6.86;100.00
4972;BME280;2501;51.214;6.768;2023-12-20T09:56:02;101323.56;;;6.70;100.00
4972;BME280;2501;51.214;6.768;2023-12-20T09:58:31;101316.50;;;6.96;100.00
4972;BME280;2501;51.214;6.768;2023-12-20T10:01:00;101321.63;;;6.93;100.00
4972;BME280;2501;51.214;6.768;2023-12-20T10:03:30;101311.53;;;7.04;100.00
4972;BME280;2501;51.214;6.768;2023-12-20T10:06:00;101319.50;;;6.80;100.00
4972;BME280;2501;51.214;6.768;2023-12-20T10:08:31;101320.50;;;6.83;100.00
4972;BME280;2501;51.214;6.768;2023-12-20T10:11:01;101320.63;;;6.88;100.00
4972;BME280;2501;51.214;6.768;2023-12-20T10:13:30;101313.06;;;6.97;100.00
4972;BME280;2501;51.214;6.768;2023-12-20T10:15:59;101312.03;;;6.90;100.00
4972;BME280;2501;51.214;6.768;2023-12-20T10:18:29;101319.97;;;6.95;100.00
4972;BME280;2501;51.214;6.768;2023-12-20T10:20:57;101312.97;;;6.92;100.00
4972;BME280;2501;51.214;6.768;2023-12-20T10:23:26;101299.41;;;7.06;100.00
4972;BME280;2501;51.214;6.768;2023-12-20T10:26:01;101305.25;;;6.97;100.00
4972;BME280;2501;51.214;6.768;2023-12-20T10:28:33;101310.19;;;6.88;100.00
4972;BME280;2501;51.214;6.768;2023-12-20T10:31:02;101300.25;;;6.75;100.00
4972;BME280;2501;51.214;6.768;2023-12-20T10:33:31;101296.88;;;6.79;100.00
4972;BME280;2501;51.214;6.768;2023-12-20T10:36:00;101294.41;;;7.13;100.00
4972;BME280;2501;51.214;6.768;2023-12-20T10:38:28;101294.25;;;7.07;100.00
4972;BME280;2501;51.214;6.768;2023-12-20T10:41:01;101291.22;;;6.93;100.00
4972;BME280;2501;51.214;6.768;2023-12-20T10:43:33;101284.06;;;6.86;100.00
4972;BME280;2501;51.214;6.768;2023-12-20T10:46:03;101276.75;;;7.03;100.00
4972;BME280;2501;51.214;6.768;2023-12-20T10:48:32;101279.69;;;7.15;100.00
4972;BME280;2501;51.214;6.768;2023-12-20T10:51:01;101282.56;;;7.24;100.00
4972;BME280;2501;51.214;6.768;2023-12-20T10:53:30;101270.28;;;7.20;100.00
4972;BME280;2501;51.214;6.768;2023-12-20T10:56:03;101266.72;;;7.18;100.00
4972;BME280;2501;51.214;6.768;2023-12-20T10:58:32;101262.59;;;7.25;100.00
4972;BME280;2501;51.214;6.768;2023-12-20T11:01:01;101268.75;;;7.28;100.00
4972;BME280;2501;51.214;6.768;2023-12-20T11:03:34;101269.94;;;7.40;100.00
4972;BME280;2501;51.214;6.768;2023-12-20T11:06:09;101267.00;;;7.29;100.00
4972;BME280;2501;51.214;6.768;2023-12-20T11:08:48;101276.28;;;7.18;100.00
4972;BME280;2501;51.214;6.768;2023-12-20T11:11:29;101273.59;;;7.15;100.00
4972;BME280;2501;51.214;6.768;2023-12-20T11:14:02;101275.25;;;7.13;100.00
4972;BME280;2501;51.214;6.768;2023-12-20T11:16:32;101273.72;;;7.19;100.00
4972;BME280;2501;51.214;6.768;2023-12-20T11:19:04;101268.06;;;7.04;100.00
4972;BME280;2501;51.214;6.768;2023-12-20T11:21:30;101276.75;;;7.03;100.00
4972;BME280;2501;51.214;6.768;2023-12-20T11:23:59;101270.00;;;7.11;100.00
4972;BME280;2501;51.214;6.768;2023-12-20T11:26:29;101264.97;;;7.17;100.00
4972;BME280;2501;51.214;6.768;2023-12-20T11:31:56;101257.22;;;6.89;100.00
4972;BME280;2501;51.214;6.768;2023-12-20T11:34:27;101249.00;;;7.38;100.00
4972;BME280;2501;51.214;6.768;2023-12-20T11:37:00;101247.63;;;7.19;100.00
4972;BME280;2501;51.214;6.768;2023-12-20T11:39:28;101248.84;;;7.32;100.00
4972;BME280;2501;51.214;6.768;2023-12-20T11:42:07;101243.69;;;7.02;100.00
4972;BME280;2501;51.214;6.768;2023-12-20T11:44:36;101250.34;;;7.22;100.00
4972;BME280;2501;51.214;6.768;2023-12-20T11:47:05;101254.41;;;7.13;100.00
4972;BME280;2501;51.214;6.768;2023-12-20T11:49:33;101249.25;;;7.16;100.00
4972;BME280;2501;51.214;6.768;2023-12-20T11:52:02;101242.59;;;7.25;100.00
4972;BME280;2501;51.214;6.768;2023-12-20T11:54:31;101249.78;;;7.34;100.00
4972;BME280;2501;51.214;6.768;2023-12-20T11:57:00;101251.63;;;7.07;100.00
4972;BME280;2501;51.214;6.768;2023-12-20T11:59:31;101249.78;;;7.34;100.00
4972;BME280;2501;51.214;6.768;2023-12-20T12:02:00;101241.31;;;7.43;100.00
4972;BME280;2501;51.214;6.768;2023-12-20T12:04:28;101242.56;;;7.57;100.00
4972;BME280;2501;51.214;6.768;2023-12-20T12:06:57;101233.44;;;7.41;100.00
4972;BME280;2501;51.214;6.768;2023-12-20T12:09:26;101228.56;;;7.22;100.00
4972;BME280;2501;51.214;6.768;2023-12-20T12:11:54;101235.66;;;7.26;100.00
4972;BME280;2501;51.214;6.768;2023-12-20T12:14:24;101224.09;;;7.18;100.00
4972;BME280;2501;51.214;6.768;2023-12-20T12:16:55;101212.13;;;7.24;100.00
4972;BME280;2501;51.214;6.768;2023-12-20T12:19:26;101222.75;;;7.32;100.00
4972;BME280;2501;51.214;6.768;2023-12-20T12:22:04;101212.13;;;7.24;100.00
4972;BME280;2501;51.214;6.768;2023-12-20T12:24:35;101216.47;;;7.24;100.00
4972;BME280;2501;51.214;6.768;2023-12-20T12:27:06;101210.69;;;7.04;100.00
4972;BME280;2501;51.214;6.768;2023-12-20T12:29:37;101212.00;;;7.20;100.00
4972;BME280;2501;51.214;6.768;2023-12-20T12:32:09;101214.16;;;7.03;100.00
4972;BME280;2501;51.214;6.768;2023-12-20T12:34:39;101221.69;;;6.92;100.00
4972;BME280;2501;51.214;6.768;2023-12-20T12:37:09;101210.28;;;7.20;100.00
4972;BME280;2501;51.214;6.768;2023-12-20T12:39:38;101216.31;;;7.19;100.00
4972;BME280;2501;51.214;6.768;2023-12-20T12:42:06;101213.09;;;6.96;100.00
4972;BME280;2501;51.214;6.768;2023-12-20T12:44:35;101212.19;;;6.96;100.00
4972;BME280;2501;51.214;6.768;2023-12-20T12:47:04;101199.66;;;7.14;100.00
4972;BME280;2501;51.214;6.768;2023-12-20T12:49:43;101199.91;;;7.23;100.00
4972;BME280;2501;51.214;6.768;2023-12-20T12:52:12;101201.47;;;7.17;100.00
4972;BME280;2501;51.214;6.768;2023-12-20T12:54:47;101189.44;;;7.22;100.00
4972;BME280;2501;51.214;6.768;2023-12-20T12:57:20;101188.69;;;7.26;100.00
4972;BME280;2501;51.214;6.768;2023-12-20T12:59:50;101188.63;;;6.93;100.00
4972;BME280;2501;51.214;6.768;2023-12-20T13:02:19;101186.06;;;6.94;100.00
4972;BME280;2501;51.214;6.768;2023-12-20T13:04:55;101198.66;;;6.78;100.00
4972;BME280;2501;51.214;6.768;2023-12-20T13:07:37;101185.78;;;6.84;100.00
4972;BME280;2501;51.214;6.768;2023-12-20T13:10:08;101183.41;;;6.91;100.00
4972;BME280;2501;51.214;6.768;2023-12-20T13:12:37;101189.34;;;6.86;100.00
4972;BME280;2501;51.214;6.768;2023-12-20T13:15:07;101181.72;;;6.63;100.00
4972;BME280;2501;51.214;6.768;2023-12-20T13:17:39;101180.63;;;6.85;100.00
4972;BME280;2501;51.214;6.768;2023-12-20T13:20:10;101171.66;;;6.76;100.00
4972;BME280;2501;51.214;6.768;2023-12-20T13:22:39;101164.66;;;6.73;100.00
4972;BME280;2501;51.214;6.768;2023-12-20T13:25:08;101156.50;;;6.92;100.00